createdAt,value
2022-08-22T00:00:13.958Z,100.00
2022-08-22T00:03:01.812Z,100.00
2022-08-22T00:03:31.250Z,100.00
2022-08-22T00:06:31.061Z,100.00
2022-08-22T00:09:48.549Z,100.00
2022-08-22T00:12:26.221Z,100.00
2022-08-22T00:15:42.409Z,100.00
2022-08-22T00:18:55.665Z,100.00
2022-08-22T00:21:39.559Z,100.00
2022-08-22T00:24:29.756Z,100.00
2022-08-22T00:27:37.941Z,100.00
2022-08-22T00:30:18.100Z,100.00
2022-08-22T00:33:11.713Z,100.00
2022-08-22T00:35:51.624Z,100.00
2022-08-22T00:38:40.981Z,100.00
2022-08-22T00:41:50.556Z,100.00
2022-08-22T00:45:00.429Z,100.00
2022-08-22T00:48:02.919Z,100.00
2022-08-22T00:51:10.841Z,100.00
2022-08-22T00:54:28.668Z,100.00
2022-08-22T00:58:22.561Z,100.00
2022-08-22T01:01:03.358Z,100.00
2022-08-22T01:03:50.367Z,100.00
2022-08-22T01:07:23.840Z,100.00
2022-08-22T01:10:43.348Z,100.00
2022-08-22T01:14:37.571Z,100.00
2022-08-22T01:18:11.431Z,100.00
2022-08-22T01:21:59.961Z,100.00
2022-08-22T01:25:39.390Z,100.00
2022-08-22T01:29:01.485Z,100.00
2022-08-22T01:31:53.717Z,100.00
2022-08-22T01:35:09.539Z,100.00
2022-08-22T01:38:23.634Z,100.00
2022-08-22T01:41:39.866Z,100.00
2022-08-22T01:45:08.486Z,100.00
2022-08-22T01:48:20.318Z,100.00
2022-08-22T01:51:39.069Z,100.00
2022-08-22T01:54:54.822Z,100.00
2022-08-22T01:57:24.678Z,100.00
2022-08-22T02:00:07.842Z,100.00
2022-08-22T02:03:24.562Z,100.00
2022-08-22T02:06:15.512Z,100.00
2022-08-22T02:09:40.641Z,100.00
2022-08-22T02:12:42.308Z,100.00
2022-08-22T02:16:09.778Z,100.00
2022-08-22T02:19:15.473Z,100.00
2022-08-22T02:22:18.087Z,100.00
2022-08-22T02:25:21.535Z,100.00
2022-08-22T02:28:16.760Z,100.00
2022-08-22T02:31:20.379Z,100.00
2022-08-22T02:34:02.336Z,100.00
2022-08-22T02:36:46.721Z,100.00
2022-08-22T02:40:07.115Z,100.00
2022-08-22T02:43:25.434Z,100.00
2022-08-22T02:46:38.669Z,100.00
2022-08-22T02:50:12.936Z,100.00
2022-08-22T02:53:38.859Z,100.00
2022-08-22T02:56:34.341Z,100.00
2022-08-22T02:59:38.017Z,100.00
2022-08-22T03:02:56.788Z,100.00
2022-08-22T03:05:36.845Z,100.00
2022-08-22T03:08:17.083Z,100.00
2022-08-22T03:11:07.493Z,100.00
2022-08-22T03:14:26.048Z,100.00
2022-08-22T03:17:21.675Z,100.00
2022-08-22T03:20:52.056Z,100.00
2022-08-22T03:23:54.455Z,100.00
2022-08-22T03:26:52.355Z,100.00
2022-08-22T03:29:31.343Z,100.00
2022-08-22T03:32:24.284Z,100.00
2022-08-22T03:35:26.242Z,100.00
2022-08-22T03:38:24.784Z,100.00
2022-08-22T03:41:27.371Z,100.00
2022-08-22T03:44:29.092Z,100.00
2022-08-22T03:47:38.613Z,100.00
2022-08-22T03:50:26.680Z,100.00
2022-08-22T03:53:41.315Z,100.00
2022-08-22T03:56:52.603Z,100.00
2022-08-22T04:00:24.021Z,100.00
2022-08-22T04:04:02.355Z,100.00
2022-08-22T04:07:45.746Z,100.00
2022-08-22T04:10:51.688Z,100.00
2022-08-22T04:13:49.972Z,100.00
2022-08-22T04:16:58.194Z,100.00
2022-08-22T04:20:37.765Z,100.00
2022-08-22T04:23:49.668Z,100.00
2022-08-22T04:27:10.964Z,100.00
2022-08-22T04:30:16.040Z,100.00
2022-08-22T04:33:04.991Z,100.00
2022-08-22T04:36:14.918Z,100.00
2022-08-22T04:39:13.131Z,100.00
2022-08-22T04:42:11.143Z,100.00
2022-08-22T04:45:17.221Z,100.00
2022-08-22T04:48:22.841Z,100.00
2022-08-22T04:51:24.850Z,100.00
2022-08-22T04:54:23.500Z,100.00
2022-08-22T04:57:34.465Z,100.00
2022-08-22T05:00:09.707Z,100.00
2022-08-22T05:02:44.669Z,100.00
2022-08-22T05:05:42.369Z,100.00
2022-08-22T05:08:18.844Z,100.00
2022-08-22T05:10:49.999Z,100.00
2022-08-22T05:13:27.174Z,100.00
2022-08-22T05:16:04.379Z,100.00
2022-08-22T05:18:50.175Z,100.00
2022-08-22T05:21:27.166Z,100.00
2022-08-22T05:24:19.361Z,100.00
2022-08-22T05:26:53.933Z,100.00
2022-08-22T05:29:30.667Z,100.00
2022-08-22T05:32:16.488Z,100.00
2022-08-22T05:34:46.643Z,100.00
2022-08-22T05:37:23.308Z,100.00
2022-08-22T05:39:59.800Z,100.00
2022-08-22T05:42:37.261Z,100.00
2022-08-22T05:45:12.398Z,100.00
2022-08-22T05:48:17.093Z,100.00
2022-08-22T05:51:05.899Z,100.00
2022-08-22T05:53:44.400Z,100.00
2022-08-22T05:56:48.884Z,100.00
2022-08-22T05:59:39.597Z,100.00
2022-08-22T06:02:47.601Z,100.00
2022-08-22T06:05:32.813Z,100.00
2022-08-22T06:08:44.285Z,100.00
2022-08-22T06:11:33.947Z,100.00
2022-08-22T06:14:48.905Z,100.00
2022-08-22T06:17:33.717Z,100.00
2022-08-22T06:20:02.253Z,100.00
2022-08-22T06:22:41.435Z,100.00
2022-08-22T06:25:31.973Z,100.00
2022-08-22T06:28:13.667Z,100.00
2022-08-22T06:30:45.476Z,100.00
2022-08-22T06:33:22.533Z,100.00
2022-08-22T06:36:31.672Z,100.00
2022-08-22T06:39:36.591Z,100.00
2022-08-22T06:42:17.221Z,100.00
2022-08-22T06:45:00.312Z,100.00
2022-08-22T06:48:00.573Z,100.00
2022-08-22T06:50:43.753Z,100.00
2022-08-22T06:53:38.331Z,100.00
2022-08-22T06:56:19.165Z,100.00
2022-08-22T06:58:52.461Z,100.00
2022-08-22T07:01:33.152Z,100.00
2022-08-22T07:04:10.491Z,100.00
2022-08-22T07:06:50.310Z,100.00
2022-08-22T07:09:38.812Z,100.00
2022-08-22T07:12:36.048Z,100.00
2022-08-22T07:15:39.816Z,100.00
2022-08-22T07:18:23.281Z,100.00
2022-08-22T07:20:57.496Z,100.00
2022-08-22T07:23:47.900Z,100.00
2022-08-22T07:26:55.968Z,100.00
2022-08-22T07:30:15.291Z,100.00
2022-08-22T07:33:26.087Z,100.00
2022-08-22T07:36:31.844Z,100.00
2022-08-22T07:39:53.945Z,100.00
2022-08-22T07:43:04.421Z,100.00
2022-08-22T07:46:00.310Z,100.00
2022-08-22T07:49:21.783Z,100.00
2022-08-22T07:52:08.043Z,100.00
2022-08-22T07:55:23.735Z,100.00
2022-08-22T07:58:04.524Z,100.00
2022-08-22T08:00:33.760Z,100.00
2022-08-22T08:03:08.955Z,100.00
2022-08-22T08:05:40.876Z,100.00
2022-08-22T08:08:25.297Z,100.00
2022-08-22T08:10:59.251Z,100.00
2022-08-22T08:13:40.020Z,100.00
2022-08-22T08:16:22.311Z,100.00
2022-08-22T08:18:56.723Z,100.00
2022-08-22T08:21:43.871Z,100.00
2022-08-22T08:24:21.204Z,100.00
2022-08-22T08:27:19.040Z,100.00
2022-08-22T08:30:02.706Z,100.00
2022-08-22T08:32:36.300Z,100.00
2022-08-22T08:35:30.144Z,100.00
2022-08-22T08:38:31.299Z,100.00
2022-08-22T08:41:51.586Z,100.00
2022-08-22T08:45:24.654Z,100.00
2022-08-22T08:48:57.042Z,100.00
2022-08-22T08:51:58.006Z,100.00
2022-08-22T08:54:51.727Z,100.00
2022-08-22T08:58:29.130Z,100.00
2022-08-22T09:01:37.600Z,100.00
2022-08-22T09:05:12.615Z,100.00
2022-08-22T09:08:47.514Z,100.00
2022-08-22T09:12:31.050Z,100.00
2022-08-22T09:15:58.446Z,100.00
2022-08-22T09:19:18.976Z,100.00
2022-08-22T09:22:56.310Z,100.00
2022-08-22T09:26:21.996Z,100.00
2022-08-22T09:29:51.467Z,100.00
2022-08-22T09:33:13.522Z,97.97
2022-08-22T09:36:12.896Z,98.33
2022-08-22T09:39:47.205Z,100.00
2022-08-22T09:43:11.059Z,93.60
2022-08-22T09:46:22.521Z,100.00
2022-08-22T09:49:24.061Z,100.00
2022-08-22T09:52:15.293Z,95.48
2022-08-22T09:55:11.817Z,99.30
2022-08-22T09:58:05.714Z,100.00
2022-08-22T10:01:03.901Z,100.00
2022-08-22T10:04:07.075Z,100.00
2022-08-22T10:07:34.131Z,100.00
2022-08-22T10:10:47.161Z,100.00
2022-08-22T10:13:47.412Z,100.00
2022-08-22T10:17:24.825Z,86.97
2022-08-22T10:20:23.152Z,100.00
2022-08-22T10:23:35.037Z,96.74
2022-08-22T10:26:38.604Z,88.64
2022-08-22T10:30:06.784Z,100.00
2022-08-22T10:33:44.473Z,95.03
2022-08-22T10:36:40.924Z,100.00
2022-08-22T10:39:22.266Z,86.02
2022-08-22T10:42:28.278Z,96.30
2022-08-22T10:45:36.882Z,98.09
2022-08-22T10:48:23.400Z,94.97
2022-08-22T10:51:28.833Z,83.59
2022-08-22T10:54:33.049Z,77.44
2022-08-22T10:57:42.691Z,91.25
2022-08-22T11:01:01.855Z,95.24
2022-08-22T11:04:28.314Z,88.37
2022-08-22T11:07:18.633Z,90.23
2022-08-22T11:10:05.308Z,92.57
2022-08-22T11:12:43.616Z,71.57
2022-08-22T11:16:30.738Z,64.46
2022-08-22T11:20:07.740Z,64.04
2022-08-22T11:23:04.617Z,76.02
2022-08-22T11:26:14.132Z,58.03
2022-08-22T11:29:29.404Z,61.88
2022-08-22T11:32:32.158Z,75.13
2022-08-22T11:35:27.928Z,66.40
2022-08-22T11:38:10.910Z,54.65
2022-08-22T11:41:29.766Z,73.07
2022-08-22T11:44:19.281Z,56.15
2022-08-22T11:46:51.230Z,66.85
2022-08-22T11:49:51.395Z,61.14
2022-08-22T11:52:51.804Z,54.05
2022-08-22T11:56:29.443Z,57.30
2022-08-22T11:59:18.504Z,65.42
2022-08-22T12:02:04.732Z,47.17
2022-08-22T12:04:52.048Z,62.60
2022-08-22T12:07:37.043Z,54.87
2022-08-22T12:10:27.552Z,58.33
2022-08-22T12:13:51.247Z,56.67
2022-08-22T12:17:55.932Z,57.04
2022-08-22T12:21:26.082Z,59.35
2022-08-22T12:24:48.013Z,53.40
2022-08-22T12:28:09.756Z,48.76
2022-08-22T12:31:12.845Z,49.45
2022-08-22T12:34:07.778Z,49.80
2022-08-22T12:37:18.416Z,52.61
2022-08-22T12:40:57.201Z,48.14
2022-08-22T12:44:17.206Z,49.36
2022-08-22T12:47:59.088Z,45.36
2022-08-22T12:51:25.280Z,49.55
2022-08-22T12:55:03.080Z,45.88
2022-08-22T12:58:06.949Z,44.17
2022-08-22T13:00:47.424Z,47.14
2022-08-22T13:03:33.914Z,43.91
2022-08-22T13:06:33.469Z,42.29
2022-08-22T13:09:19.812Z,41.38
2022-08-22T13:12:24.625Z,43.64
2022-08-22T13:15:19.360Z,47.16
2022-08-22T13:17:50.795Z,47.30
2022-08-22T13:20:41.649Z,49.84
2022-08-22T13:23:42.120Z,48.60
2022-08-22T13:26:34.568Z,44.48
2022-08-22T13:29:27.186Z,43.41
2022-08-22T13:32:01.843Z,42.46
2022-08-22T13:35:09.354Z,45.57
2022-08-22T13:37:45.940Z,43.01
2022-08-22T13:40:31.639Z,43.50
2022-08-22T13:43:30.250Z,44.50
2022-08-22T13:46:07.201Z,46.98
2022-08-22T13:49:00.747Z,43.19
2022-08-22T13:52:30.464Z,47.72
2022-08-22T13:55:34.515Z,48.11
2022-08-22T13:58:18.359Z,45.04
2022-08-22T14:01:39.228Z,46.78
2022-08-22T14:04:34.883Z,46.31
2022-08-22T14:07:03.762Z,45.74
2022-08-22T14:10:14.846Z,45.20
2022-08-22T14:13:50.171Z,47.23
2022-08-22T14:16:37.819Z,50.19
2022-08-22T14:19:39.968Z,49.51
2022-08-22T14:22:31.716Z,43.82
2022-08-22T14:25:21.411Z,45.59
2022-08-22T14:27:59.127Z,40.28
2022-08-22T14:31:13.410Z,39.00
2022-08-22T14:34:10.364Z,40.59
2022-08-22T14:37:15.644Z,42.25
2022-08-22T14:40:03.042Z,40.80
2022-08-22T14:43:33.615Z,43.43
2022-08-22T14:46:16.353Z,39.83
2022-08-22T14:49:28.850Z,39.54
2022-08-22T14:52:10.572Z,45.24
2022-08-22T14:54:47.041Z,35.94
2022-08-22T14:57:19.951Z,32.43
2022-08-22T14:59:52.304Z,32.95
2022-08-22T15:02:32.805Z,32.12
2022-08-22T15:05:21.414Z,32.69
2022-08-22T15:07:59.459Z,33.88
2022-08-22T15:10:34.191Z,31.77
2022-08-22T15:13:10.625Z,31.95
2022-08-22T15:15:53.321Z,33.41
2022-08-22T15:18:29.447Z,33.70
2022-08-22T15:21:10.233Z,31.32
2022-08-22T15:23:46.598Z,31.12
2022-08-22T15:26:40.134Z,30.91
2022-08-22T15:29:52.011Z,30.65
2022-08-22T15:32:29.832Z,31.27
2022-08-22T15:35:29.989Z,30.99
2022-08-22T15:38:32.740Z,31.02
2022-08-22T15:41:22.798Z,30.51
2022-08-22T15:44:32.393Z,31.87
2022-08-22T15:47:34.915Z,30.21
2022-08-22T15:50:15.897Z,30.29
2022-08-22T15:53:43.681Z,31.35
2022-08-22T15:56:16.680Z,30.20
2022-08-22T15:59:11.708Z,31.04
2022-08-22T16:01:52.556Z,29.36
2022-08-22T16:04:47.376Z,30.12
2022-08-22T16:07:41.142Z,30.68
2022-08-22T16:10:50.378Z,31.10
2022-08-22T16:13:43.213Z,30.90
2022-08-22T16:16:45.404Z,31.36
2022-08-22T16:19:29.855Z,30.58
2022-08-22T16:21:59.317Z,31.44
2022-08-22T16:24:59.580Z,32.06
2022-08-22T16:27:28.593Z,31.86
2022-08-22T16:30:10.839Z,31.33
2022-08-22T16:32:40.181Z,31.36
2022-08-22T16:35:07.684Z,32.26
2022-08-22T16:37:49.916Z,32.98
2022-08-22T16:40:25.777Z,30.82
2022-08-22T16:43:18.602Z,32.04
2022-08-22T16:45:48.552Z,31.80
2022-08-22T16:48:37.095Z,31.46
2022-08-22T16:51:18.721Z,33.10
2022-08-22T16:54:32.627Z,32.44
2022-08-22T16:58:16.084Z,32.78
2022-08-22T17:01:15.415Z,31.60
2022-08-22T17:04:09.467Z,32.30
2022-08-22T17:07:19.863Z,32.66
2022-08-22T17:10:12.193Z,32.10
2022-08-22T17:13:51.554Z,33.84
2022-08-22T17:16:40.429Z,32.42
2022-08-22T17:19:56.088Z,34.17
2022-08-22T17:22:45.038Z,34.06
2022-08-22T17:25:58.560Z,33.50
2022-08-22T17:29:04.341Z,34.45
2022-08-22T17:32:20.903Z,34.08
2022-08-22T17:35:43.363Z,35.46
2022-08-22T17:38:57.245Z,34.99
2022-08-22T17:41:41.521Z,35.46
2022-08-22T17:44:53.435Z,35.45
2022-08-22T17:47:38.994Z,36.09
2022-08-22T17:50:49.417Z,36.31
2022-08-22T17:54:01.320Z,35.99
2022-08-22T17:57:13.366Z,36.19
2022-08-22T18:00:30.684Z,37.42
2022-08-22T18:03:22.528Z,39.05
2022-08-22T18:06:26.519Z,41.37
2022-08-22T18:09:19.070Z,42.12
2022-08-22T18:12:15.704Z,43.51
2022-08-22T18:15:11.508Z,44.70
2022-08-22T18:17:55.442Z,45.67
2022-08-22T18:20:51.785Z,45.94
2022-08-22T18:23:39.787Z,47.07
2022-08-22T18:26:45.241Z,48.73
2022-08-22T18:29:31.532Z,47.98
2022-08-22T18:32:28.385Z,49.65
2022-08-22T18:35:23.762Z,49.75
2022-08-22T18:38:20.197Z,54.88
2022-08-22T18:41:32.729Z,55.51
2022-08-22T18:44:01.521Z,57.03
2022-08-22T18:46:52.879Z,57.08
2022-08-22T18:49:19.952Z,52.47
2022-08-22T18:52:09.160Z,50.98
2022-08-22T18:55:17.936Z,52.44
2022-08-22T18:58:34.381Z,67.66
2022-08-22T19:02:03.204Z,56.98
2022-08-22T19:05:46.922Z,73.12
2022-08-22T19:09:32.180Z,72.96
2022-08-22T19:13:18.964Z,62.16
2022-08-22T19:16:20.968Z,59.68
2022-08-22T19:19:04.072Z,59.36
2022-08-22T19:21:56.668Z,59.95
2022-08-22T19:24:26.800Z,60.58
2022-08-22T19:27:10.674Z,62.17
2022-08-22T19:29:37.864Z,62.68
2022-08-22T19:32:29.005Z,62.51
2022-08-22T19:36:05.817Z,62.76
2022-08-22T19:39:41.807Z,67.90
2022-08-22T19:42:21.275Z,67.67
2022-08-22T19:45:28.737Z,70.94
2022-08-22T19:48:13.613Z,71.45
2022-08-22T19:50:43.122Z,73.90
2022-08-22T19:53:47.763Z,71.02
2022-08-22T19:57:09.923Z,71.45
2022-08-22T20:00:06.113Z,74.84
2022-08-22T20:03:07.416Z,73.06
2022-08-22T20:06:05.979Z,72.68
2022-08-22T20:09:33.946Z,74.55
2022-08-22T20:12:28.916Z,73.84
2022-08-22T20:14:56.896Z,75.16
2022-08-22T20:17:26.976Z,76.94
2022-08-22T20:20:18.424Z,78.47
2022-08-22T20:23:25.161Z,79.59
2022-08-22T20:25:55.945Z,79.57
2022-08-22T20:28:47.165Z,79.61
2022-08-22T20:31:28.199Z,83.27
2022-08-22T20:34:18.246Z,85.02
2022-08-22T20:36:55.870Z,83.42
2022-08-22T20:40:55.605Z,82.54
2022-08-22T20:44:15.902Z,84.14
2022-08-22T20:47:19.606Z,83.97
2022-08-22T20:50:00.607Z,84.32
2022-08-22T20:52:51.924Z,86.11
2022-08-22T20:55:31.654Z,86.66
2022-08-22T20:58:20.659Z,90.87
2022-08-22T21:00:53.878Z,88.52
2022-08-22T21:03:51.665Z,91.08
2022-08-22T21:06:34.999Z,92.56
2022-08-22T21:09:39.944Z,92.47
2022-08-22T21:12:09.432Z,92.09
2022-08-22T21:14:45.927Z,91.44
2022-08-22T21:17:35.472Z,92.17
2022-08-22T21:20:22.762Z,93.53
2022-08-22T21:22:51.130Z,96.22
2022-08-22T21:25:18.567Z,99.30
2022-08-22T21:27:48.698Z,95.23
2022-08-22T21:30:28.178Z,98.37
2022-08-22T21:32:56.561Z,96.26
2022-08-22T21:35:32.443Z,97.63
2022-08-22T21:38:01.650Z,99.71
2022-08-22T21:40:38.601Z,99.31
2022-08-22T21:43:34.233Z,100.00
2022-08-22T21:46:01.632Z,100.00
2022-08-22T21:48:59.827Z,100.00
2022-08-22T21:51:45.806Z,100.00
2022-08-22T21:54:25.186Z,100.00
2022-08-22T21:57:09.481Z,100.00
2022-08-22T22:00:48.933Z,100.00
2022-08-22T22:03:28.160Z,100.00
2022-08-22T22:06:05.564Z,100.00
2022-08-22T22:08:33.885Z,100.00
2022-08-22T22:11:14.482Z,100.00
2022-08-22T22:13:43.373Z,100.00
2022-08-22T22:16:12.592Z,100.00
2022-08-22T22:18:40.823Z,100.00
2022-08-22T22:21:09.417Z,100.00
2022-08-22T22:23:36.803Z,100.00
2022-08-22T22:26:06.640Z,100.00
2022-08-22T22:28:47.227Z,100.00
2022-08-22T22:31:18.365Z,100.00
2022-08-22T22:33:46.227Z,100.00
2022-08-22T22:36:23.705Z,100.00
2022-08-22T22:38:52.185Z,100.00
2022-08-22T22:41:25.343Z,100.00
2022-08-22T22:43:57.269Z,100.00
2022-08-22T22:46:27.214Z,100.00
2022-08-22T22:48:57.091Z,100.00
2022-08-22T22:51:26.324Z,100.00
2022-08-22T22:53:55.307Z,100.00
2022-08-22T22:56:24.588Z,100.00
2022-08-22T22:58:59.316Z,100.00
2022-08-22T23:02:16.443Z,100.00
2022-08-22T23:04:50.764Z,100.00
2022-08-22T23:07:18.838Z,100.00
2022-08-22T23:09:46.654Z,100.00
2022-08-22T23:12:24.492Z,100.00
2022-08-22T23:14:52.307Z,100.00
2022-08-22T23:17:20.047Z,100.00
2022-08-22T23:19:47.747Z,100.00
2022-08-22T23:22:15.249Z,100.00
2022-08-22T23:24:42.834Z,100.00
2022-08-22T23:27:12.932Z,100.00
2022-08-22T23:29:41.701Z,100.00
2022-08-22T23:32:12.441Z,100.00
2022-08-22T23:34:48.728Z,100.00
2022-08-22T23:37:21.803Z,100.00
2022-08-22T23:39:50.196Z,100.00
2022-08-22T23:42:18.780Z,100.00
2022-08-22T23:44:47.676Z,100.00
2022-08-22T23:47:15.711Z,100.00
2022-08-22T23:49:43.899Z,100.00
2022-08-22T23:52:14.206Z,100.00
2022-08-22T23:54:42.370Z,100.00
2022-08-22T23:57:12.096Z,100.00
2022-08-22T23:59:47.938Z,100.00
